Time;durP1;ratioP1;P1;durP2;ratioP2;P2;SDS_P1;SDS_P2;PMS_P1;PMS_P2;Temp;Humidity;BMP_temperature;BMP_pressure;BME280_temperature;BME280_humidity;BME280_pressure;Samples;Min_cycle;Max_cycle;Signal;HPM_P1;HPM_P2
2022/01/20 00:00:32;;;;;;;8.38;6.78;;;5.40;99.90;;;;;;5014674;28;20236;-67
2022/01/20 00:03:07;;;;;;;8.63;6.25;;;5.30;99.90;;;;;;5014838;28;20228;-68
2022/01/20 00:05:53;;;;;;;7.35;5.60;;;5.30;99.90;;;;;;5015048;28;20629;-66
2022/01/20 00:08:33;;;;;;;7.00;6.03;;;5.20;99.90;;;;;;5015265;28;20205;-67
2022/01/20 00:27:52;;;;;;;7.07;4.90;;;5.40;99.90;;;;;;4954245;28;20207;-66
2022/01/20 00:30:33;;;;;;;6.15;5.05;;;5.40;99.90;;;;;;4953663;29;20665;-66
2022/01/20 00:33:01;;;;;;;6.13;5.00;;;5.30;99.90;;;;;;4989333;28;20560;-66
2022/01/20 00:35:31;;;;;;;5.68;4.95;;;5.30;99.90;;;;;;5014801;28;20327;-66
2022/01/20 00:37:57;;;;;;;6.20;4.95;;;5.30;99.90;;;;;;5014638;28;20208;-66
2022/01/20 00:40:26;;;;;;;6.33;4.97;;;5.30;99.90;;;;;;5014100;28;20729;-66
2022/01/20 00:42:52;;;;;;;7.07;5.15;;;5.40;99.90;;;;;;5014172;28;20468;-66
2022/01/20 00:45:20;;;;;;;7.18;5.07;;;5.40;99.90;;;;;;5014471;28;20295;-66
2022/01/20 00:47:47;;;;;;;5.53;4.35;;;5.40;99.90;;;;;;5014351;28;20209;-66
2022/01/20 00:50:14;;;;;;;6.30;4.78;;;5.40;99.90;;;;;;5013863;28;20207;-67
2022/01/20 00:52:41;;;;;;;6.47;5.15;;;5.40;99.90;;;;;;5013888;28;20256;-67
2022/01/20 00:55:09;;;;;;;5.40;4.90;;;5.40;99.90;;;;;;5013829;28;20663;-67
2022/01/20 00:57:37;;;;;;;7.07;5.75;;;5.30;99.90;;;;;;5013861;28;20674;-67
2022/01/20 01:00:07;;;;;;;6.72;5.00;;;5.30;99.90;;;;;;5013549;28;20293;-66
2022/01/20 01:02:35;;;;;;;5.82;5.13;;;5.40;99.90;;;;;;5013832;28;20784;-67
2022/01/20 01:05:02;;;;;;;5.97;4.47;;;5.40;99.90;;;;;;5013564;28;20731;-66
2022/01/20 01:07:45;;;;;;;5.00;4.50;;;5.40;99.90;;;;;;5013612;28;20200;-66
2022/01/20 01:10:13;;;;;;;5.32;4.70;;;5.40;99.90;;;;;;5013325;28;20263;-66
2022/01/20 01:12:49;;;;;;;5.70;5.10;;;5.40;99.90;;;;;;5013708;28;20254;-66
2022/01/20 01:15:21;;;;;;;5.13;4.47;;;5.40;99.90;;;;;;5013659;28;20204;-67
2022/01/20 01:20:45;;;;;;;5.07;4.05;;;5.30;99.90;;;;;;5013567;28;20615;-67
2022/01/20 01:23:12;;;;;;;6.05;4.90;;;5.20;99.90;;;;;;5013559;28;20220;-67
2022/01/20 01:25:39;;;;;;;5.25;4.40;;;5.20;99.90;;;;;;5013564;28;20219;-67
2022/01/20 01:28:07;;;;;;;5.15;4.00;;;5.20;99.90;;;;;;5014208;28;20209;-66
2022/01/20 01:31:06;;;;;;;4.15;3.75;;;5.30;99.90;;;;;;5015269;28;20205;-67
2022/01/20 01:33:35;;;;;;;5.15;4.28;;;5.20;99.90;;;;;;5015209;28;20228;-67
2022/01/20 01:36:04;;;;;;;3.83;3.53;;;5.20;99.90;;;;;;5015597;28;20216;-67
2022/01/20 01:38:37;;;;;;;4.35;3.45;;;5.20;99.90;;;;;;5015824;28;20666;-67
2022/01/20 01:41:07;;;;;;;4.45;3.88;;;5.20;99.90;;;;;;5014575;28;20209;-67
2022/01/20 01:43:37;;;;;;;4.32;3.85;;;5.10;99.90;;;;;;5015864;28;20228;-67
2022/01/20 01:46:04;;;;;;;4.70;4.20;;;5.10;99.90;;;;;;5015276;28;20232;-67
2022/01/20 01:48:34;;;;;;;4.10;3.70;;;5.10;99.90;;;;;;5015399;28;20226;-67
2022/01/20 01:51:01;;;;;;;3.67;3.38;;;5.10;99.90;;;;;;5015058;28;20240;-66
2022/01/20 01:53:28;;;;;;;3.58;3.10;;;5.20;99.90;;;;;;5014721;28;20228;-67
2022/01/20 01:55:55;;;;;;;4.70;3.60;;;5.20;99.90;;;;;;5014906;28;20204;-67
2022/01/20 01:58:23;;;;;;;3.78;3.15;;;5.20;99.90;;;;;;5015101;28;20205;-67
2022/01/20 02:00:51;;;;;;;3.50;3.20;;;5.20;99.90;;;;;;5014765;28;20567;-66
2022/01/20 02:03:18;;;;;;;4.40;3.22;;;5.10;99.90;;;;;;5015131;28;20227;-67
2022/01/20 02:06:00;;;;;;;3.55;3.20;;;5.10;99.90;;;;;;5015878;28;20604;-67
2022/01/20 02:08:36;;;;;;;3.20;2.90;;;5.20;99.90;;;;;;5014871;28;20189;-67
2022/01/20 02:19:20;;;;;;;3.38;3.08;;;5.00;99.90;;;;;;5015018;28;20220;-66
2022/01/20 02:21:49;;;;;;;3.97;3.33;;;5.00;99.90;;;;;;5014567;28;20291;-67
2022/01/20 02:24:16;;;;;;;3.10;2.80;;;5.00;99.90;;;;;;5015592;28;20221;-67
2022/01/20 02:26:43;;;;;;;3.67;3.10;;;5.00;99.90;;;;;;5015319;28;20200;-67
2022/01/20 02:29:10;;;;;;;3.72;3.42;;;5.00;99.90;;;;;;5014557;28;20204;-67
2022/01/20 02:31:37;;;;;;;3.75;3.45;;;5.00;99.90;;;;;;5014653;28;20205;-66
2022/01/20 02:34:05;;;;;;;2.90;2.70;;;5.10;99.90;;;;;;5015073;28;20239;-67
2022/01/20 02:36:32;;;;;;;3.20;2.90;;;5.10;99.90;;;;;;5014702;28;20204;-66
2022/01/20 02:39:07;;;;;;;3.95;3.10;;;5.10;99.90;;;;;;5015523;28;20605;-67
2022/01/20 02:47:10;;;;;;;4.20;3.40;;;5.10;99.90;;;;;;5004632;28;20197;-67
2022/01/20 02:49:37;;;;;;;3.45;3.00;;;5.20;99.90;;;;;;5014334;28;20231;-67
2022/01/20 02:52:06;;;;;;;3.20;2.90;;;5.20;99.90;;;;;;5016594;28;20312;-67
2022/01/20 02:54:34;;;;;;;3.15;2.85;;;5.20;99.90;;;;;;5018554;28;20235;-67
2022/01/20 02:57:01;;;;;;;3.35;3.00;;;5.30;99.90;;;;;;5018548;28;20300;-67
2022/01/20 02:59:28;;;;;;;2.80;2.60;;;5.30;99.90;;;;;;5018546;28;20205;-67
2022/01/20 03:01:55;;;;;;;2.55;2.35;;;5.30;99.90;;;;;;5018288;28;20299;-67
2022/01/20 03:04:25;;;;;;;2.53;2.33;;;5.30;99.90;;;;;;5018898;28;20243;-67
2022/01/20 03:06:52;;;;;;;2.70;2.50;;;5.30;99.90;;;;;;5018664;28;20205;-66
2022/01/20 03:09:19;;;;;;;2.83;2.53;;;5.20;99.90;;;;;;5018049;28;20208;-67
2022/01/20 03:11:47;;;;;;;2.53;2.33;;;5.20;99.90;;;;;;5018008;28;20215;-66
2022/01/20 03:14:17;;;;;;;2.15;1.98;;;5.30;99.90;;;;;;5018383;28;20240;-67
2022/01/20 03:16:44;;;;;;;2.35;2.15;;;5.30;99.90;;;;;;5018355;28;20201;-66
2022/01/20 03:19:11;;;;;;;2.72;2.17;;;5.30;99.90;;;;;;5017852;28;20208;-66
2022/01/20 03:21:38;;;;;;;2.40;2.20;;;5.30;99.90;;;;;;5017740;28;20209;-67
2022/01/20 03:24:05;;;;;;;2.50;2.13;;;5.30;99.90;;;;;;5017432;28;20248;-66
2022/01/20 03:26:33;;;;;;;2.35;2.17;;;5.30;99.90;;;;;;5018036;28;20201;-66
2022/01/20 03:29:01;;;;;;;2.42;2.30;;;5.30;99.90;;;;;;5018102;28;20211;-67
2022/01/20 03:31:30;;;;;;;2.20;2.03;;;5.40;99.90;;;;;;5017325;28;20208;-66
2022/01/20 03:33:57;;;;;;;3.00;2.70;;;5.40;99.90;;;;;;5017814;28;20587;-66
2022/01/20 03:36:24;;;;;;;1.90;1.80;;;5.30;99.90;;;;;;5017831;28;20215;-66
2022/01/20 03:38:51;;;;;;;2.42;2.17;;;5.30;99.90;;;;;;5017885;28;20247;-67
2022/01/20 03:41:19;;;;;;;2.53;2.17;;;5.20;99.90;;;;;;5016871;28;20566;-67
2022/01/20 03:43:46;;;;;;;2.75;2.30;;;5.20;99.90;;;;;;5017494;28;20225;-66
2022/01/20 03:46:16;;;;;;;2.40;2.20;;;5.20;99.90;;;;;;5017333;28;20210;-66
2022/01/20 03:48:50;;;;;;;2.78;2.40;;;5.20;99.90;;;;;;5017556;28;20212;-66
2022/01/20 03:51:20;;;;;;;2.80;2.28;;;5.20;99.90;;;;;;5017177;28;20213;-67
2022/01/20 03:53:48;;;;;;;3.20;2.50;;;5.20;99.90;;;;;;5017595;28;20243;-67
2022/01/20 03:56:15;;;;;;;3.35;2.40;;;5.30;99.90;;;;;;5017652;28;20204;-67
2022/01/20 03:58:41;;;;;;;4.22;3.30;;;5.30;99.90;;;;;;5016993;28;20205;-67
2022/01/20 04:01:08;;;;;;;2.80;2.60;;;5.30;99.90;;;;;;5017042;28;20731;-66
2022/01/20 04:03:36;;;;;;;3.00;2.60;;;5.30;99.90;;;;;;5016639;28;20221;-67
2022/01/20 04:06:03;;;;;;;3.05;2.75;;;5.30;99.90;;;;;;5017205;28;20205;-67
2022/01/20 04:08:32;;;;;;;3.03;2.70;;;5.30;99.90;;;;;;5017359;28;20207;-67
2022/01/20 04:10:59;;;;;;;2.67;2.38;;;5.40;99.90;;;;;;5016892;28;20209;-66
2022/01/20 04:13:30;;;;;;;4.22;3.00;;;5.40;99.90;;;;;;5016781;28;20222;-67
2022/01/20 04:15:59;;;;;;;3.50;3.15;;;5.40;99.90;;;;;;5017115;28;20233;-67
2022/01/20 04:18:27;;;;;;;3.58;3.08;;;5.40;99.90;;;;;;5017205;28;20219;-67
2022/01/20 04:20:55;;;;;;;3.60;3.30;;;5.40;99.90;;;;;;5016564;28;20255;-66
2022/01/20 04:23:22;;;;;;;4.47;3.63;;;5.40;99.90;;;;;;5017004;28;20754;-67
2022/01/20 04:25:49;;;;;;;3.90;3.45;;;5.40;99.90;;;;;;5016601;28;20618;-66
2022/01/20 04:28:16;;;;;;;4.22;3.28;;;5.40;99.90;;;;;;5016059;28;20215;-67
2022/01/20 04:30:43;;;;;;;3.50;3.20;;;5.40;99.90;;;;;;5016620;28;20675;-66
2022/01/20 04:33:10;;;;;;;3.83;3.42;;;5.40;99.90;;;;;;5016954;28;20315;-67
2022/01/20 04:35:36;;;;;;;3.50;3.20;;;5.40;99.90;;;;;;5016966;28;20634;-67
2022/01/20 04:38:06;;;;;;;3.50;2.85;;;5.40;99.90;;;;;;5016931;28;20295;-67
2022/01/20 04:40:38;;;;;;;3.63;3.33;;;5.40;99.90;;;;;;5016178;28;20252;-67
2022/01/20 04:43:06;;;;;;;4.13;3.72;;;5.40;99.90;;;;;;5016299;28;20236;-66
2022/01/20 04:45:38;;;;;;;4.82;3.95;;;5.40;99.90;;;;;;5016366;28;20268;-67
2022/01/20 04:48:17;;;;;;;4.18;3.58;;;5.40;99.90;;;;;;5016010;28;20212;-67
2022/01/20 04:58:59;;;;;;;4.30;3.88;;;5.40;99.90;;;;;;5016590;28;20653;-67
2022/01/20 05:01:25;;;;;;;4.18;3.25;;;5.40;99.90;;;;;;5015978;28;20208;-66
2022/01/20 05:03:54;;;;;;;3.47;2.92;;;5.30;99.90;;;;;;5016241;28;20228;-67
2022/01/20 05:06:21;;;;;;;3.20;2.90;;;5.30;99.90;;;;;;5016247;28;20255;-67
2022/01/20 05:08:51;;;;;;;4.07;3.50;;;5.30;99.90;;;;;;5016254;28;20208;-67
2022/01/20 05:11:18;;;;;;;3.95;3.55;;;5.20;99.90;;;;;;5016008;28;20223;-67
2022/01/20 05:13:45;;;;;;;3.35;3.05;;;5.10;99.90;;;;;;5015591;28;20221;-66
2022/01/20 05:16:12;;;;;;;3.65;3.33;;;5.10;99.90;;;;;;5015085;28;20211;-66
2022/01/20 05:18:39;;;;;;;3.85;3.53;;;5.10;99.90;;;;;;5015960;28;20614;-66
2022/01/20 05:21:06;;;;;;;3.70;3.40;;;5.10;99.90;;;;;;5015910;28;20205;-67
2022/01/20 05:23:33;;;;;;;4.40;3.30;;;5.10;99.90;;;;;;5016495;28;20230;-67
2022/01/20 05:26:01;;;;;;;3.40;3.10;;;5.10;99.90;;;;;;5015544;28;20201;-67
2022/01/20 05:28:28;;;;;;;4.80;4.03;;;5.10;99.90;;;;;;5015796;28;20219;-66
2022/01/20 05:30:55;;;;;;;4.93;3.40;;;5.10;99.90;;;;;;5015533;28;20271;-67
2022/01/20 05:33:21;;;;;;;4.15;3.75;;;5.10;99.90;;;;;;5015939;28;20220;-67
2022/01/20 05:35:48;;;;;;;4.60;4.00;;;5.10;99.90;;;;;;5015734;28;20266;-66
2022/01/20 05:38:15;;;;;;;4.18;3.50;;;5.10;99.90;;;;;;5016141;28;20201;-67
2022/01/20 05:40:42;;;;;;;5.78;3.70;;;5.10;99.90;;;;;;5015635;28;20299;-66
2022/01/20 05:43:10;;;;;;;4.75;3.45;;;5.10;99.90;;;;;;5015364;28;20327;-67
2022/01/20 05:45:37;;;;;;;5.40;4.10;;;5.10;99.90;;;;;;5015591;28;20205;-67
2022/01/20 05:48:12;;;;;;;4.55;3.45;;;5.10;99.90;;;;;;5015339;28;20236;-66
2022/01/20 05:50:39;;;;;;;5.32;3.67;;;5.00;99.90;;;;;;5015271;28;20221;-66
2022/01/20 05:53:07;;;;;;;4.07;3.65;;;5.10;99.90;;;;;;5015926;28;20227;-67
2022/01/20 05:55:34;;;;;;;4.90;3.78;;;5.00;99.90;;;;;;5015662;28;20229;-67
2022/01/20 05:58:02;;;;;;;4.95;3.80;;;5.00;99.90;;;;;;5015438;28;20204;-66
2022/01/20 06:00:30;;;;;;;5.07;3.90;;;5.00;99.90;;;;;;5015205;28;20214;-67
2022/01/20 06:05:38;;;;;;;5.38;3.72;;;5.00;99.90;;;;;;5002709;28;20242;-66
2022/01/20 06:08:05;;;;;;;6.97;5.75;;;5.00;99.90;;;;;;5015852;28;20559;-66
2022/01/20 06:10:32;;;;;;;4.32;3.13;;;5.00;99.90;;;;;;5014981;28;20743;-66
2022/01/20 06:12:59;;;;;;;4.68;3.97;;;4.90;99.90;;;;;;5015061;28;20588;-66
2022/01/20 06:15:26;;;;;;;4.57;4.03;;;4.90;99.90;;;;;;5015679;28;20227;-66
2022/01/20 06:17:54;;;;;;;6.00;4.18;;;4.90;99.90;;;;;;5015477;28;20211;-66
2022/01/20 06:20:21;;;;;;;4.53;3.42;;;4.90;99.90;;;;;;5014763;28;20299;-66
2022/01/20 06:22:47;;;;;;;4.53;3.92;;;5.00;99.90;;;;;;5015081;28;20315;-66
2022/01/20 06:25:14;;;;;;;4.50;4.05;;;4.90;99.90;;;;;;5014793;28;20203;-66
2022/01/20 06:27:41;;;;;;;4.20;3.60;;;5.00;99.90;;;;;;5018552;28;20204;-66
2022/01/20 06:30:10;;;;;;;3.33;3.03;;;4.90;99.90;;;;;;5009389;28;20205;-66
2022/01/20 06:32:36;;;;;;;5.22;3.80;;;4.90;99.90;;;;;;5017490;28;20232;-67
2022/01/20 06:35:06;;;;;;;4.95;4.45;;;4.90;99.90;;;;;;5017156;28;20694;-66
2022/01/20 06:37:32;;;;;;;4.78;4.05;;;4.90;99.90;;;;;;5017673;28;20268;-66
2022/01/20 06:39:59;;;;;;;6.95;4.10;;;4.90;99.90;;;;;;5017434;28;20235;-68
2022/01/20 06:42:26;;;;;;;4.90;3.67;;;4.90;99.90;;;;;;5017348;28;20239;-67
2022/01/20 06:44:53;;;;;;;5.40;4.05;;;4.90;99.90;;;;;;5016993;28;20291;-67
2022/01/20 06:47:20;;;;;;;3.80;3.40;;;5.00;99.90;;;;;;5017011;28;20579;-67
2022/01/20 06:49:48;;;;;;;4.57;4.13;;;5.00;99.90;;;;;;5016907;28;20211;-68
2022/01/20 06:52:16;;;;;;;5.30;4.10;;;5.00;99.90;;;;;;5016287;28;20204;-68
2022/01/20 06:54:43;;;;;;;7.53;5.40;;;5.00;99.90;;;;;;5016256;28;20322;-68
2022/01/20 06:57:09;;;;;;;5.55;4.10;;;5.10;99.90;;;;;;5016470;28;20205;-68
2022/01/20 06:59:36;;;;;;;4.72;3.42;;;5.10;99.90;;;;;;5016508;28;20291;-68
2022/01/20 07:02:04;;;;;;;4.32;3.45;;;5.10;99.90;;;;;;5016219;28;20304;-68
2022/01/20 07:04:32;;;;;;;3.70;3.30;;;5.10;99.90;;;;;;5016139;28;20765;-68
2022/01/20 07:06:59;;;;;;;5.80;3.20;;;5.10;99.90;;;;;;5016459;28;20216;-68
2022/01/20 07:09:27;;;;;;;5.07;3.05;;;5.10;99.90;;;;;;5016221;28;20211;-68
2022/01/20 07:11:54;;;;;;;5.45;3.78;;;5.00;99.90;;;;;;5015986;28;20209;-68
2022/01/20 07:14:21;;;;;;;3.95;3.22;;;5.00;99.90;;;;;;5016394;28;20224;-67
2022/01/20 07:16:48;;;;;;;10.05;6.78;;;4.90;99.90;;;;;;5016774;28;20201;-67
2022/01/20 07:19:16;;;;;;;4.03;3.58;;;4.90;99.90;;;;;;5016873;28;20296;-67
2022/01/20 07:21:43;;;;;;;4.60;3.50;;;4.80;99.90;;;;;;5017966;28;20204;-68
2022/01/20 07:24:10;;;;;;;5.00;3.38;;;4.70;99.90;;;;;;5018360;28;20232;-67
2022/01/20 07:26:39;;;;;;;3.83;3.17;;;4.70;99.90;;;;;;5018015;28;20200;-67
2022/01/20 07:29:06;;;;;;;3.80;3.35;;;4.70;99.90;;;;;;5017593;28;20236;-68
2022/01/20 07:31:33;;;;;;;3.30;3.00;;;4.60;99.90;;;;;;5016836;28;20209;-68
2022/01/20 07:33:59;;;;;;;4.47;3.55;;;4.60;99.90;;;;;;5016803;28;20630;-68
2022/01/20 07:36:26;;;;;;;4.00;3.25;;;4.60;99.90;;;;;;5016923;28;20231;-68
2022/01/20 07:38:53;;;;;;;5.07;3.00;;;4.60;99.90;;;;;;5016071;28;20278;-68
2022/01/20 07:41:20;;;;;;;10.30;6.80;;;4.60;99.90;;;;;;5016188;28;20682;-68
2022/01/20 07:43:48;;;;;;;4.15;3.20;;;4.50;99.90;;;;;;5016362;28;20758;-68
2022/01/20 07:46:15;;;;;;;6.38;3.40;;;4.50;99.90;;;;;;5016720;28;20291;-68
2022/01/20 07:48:42;;;;;;;4.07;3.25;;;4.50;99.90;;;;;;5016436;28;20673;-68
2022/01/20 07:51:09;;;;;;;4.38;3.63;;;4.50;99.90;;;;;;5016504;28;20202;-68
2022/01/20 07:53:37;;;;;;;4.60;3.47;;;4.50;99.90;;;;;;5016069;28;20225;-68
2022/01/20 07:56:05;;;;;;;4.07;3.33;;;4.50;99.90;;;;;;5017108;28;20616;-68
2022/01/20 07:58:32;;;;;;;4.45;3.10;;;4.60;99.90;;;;;;5016358;28;20204;-68
2022/01/20 08:01:00;;;;;;;4.40;3.60;;;4.60;99.90;;;;;;5016209;28;20305;-68
2022/01/20 08:03:27;;;;;;;3.72;3.03;;;4.60;99.90;;;;;;5016278;28;20220;-68
2022/01/20 08:05:54;;;;;;;5.15;3.25;;;4.60;99.90;;;;;;5016620;28;20658;-68
2022/01/20 08:08:21;;;;;;;3.22;2.90;;;4.60;99.90;;;;;;5016476;28;20359;-68
2022/01/20 08:10:48;;;;;;;10.10;3.90;;;4.70;99.90;;;;;;5015992;28;20219;-68
2022/01/20 08:13:14;;;;;;;8.07;3.65;;;4.70;99.90;;;;;;5016456;28;20311;-68
2022/01/20 08:15:41;;;;;;;4.78;3.60;;;4.70;99.90;;;;;;5016089;28;20246;-68
2022/01/20 08:18:09;;;;;;;7.70;3.28;;;4.70;99.90;;;;;;5016275;28;20516;-68
2022/01/20 08:20:37;;;;;;;4.32;2.63;;;4.70;99.90;;;;;;5015658;28;20667;-68
2022/01/20 08:23:04;;;;;;;4.30;3.60;;;4.70;99.90;;;;;;5016026;28;20315;-68
2022/01/20 08:25:31;;;;;;;6.88;3.50;;;4.80;99.90;;;;;;5015779;28;20201;-67
2022/01/20 08:27:58;;;;;;;8.30;3.80;;;4.90;99.90;;;;;;5015800;28;20205;-68
2022/01/20 08:30:26;;;;;;;5.57;3.08;;;4.90;99.90;;;;;;5015516;28;20211;-68
2022/01/20 08:32:52;;;;;;;4.47;3.55;;;5.00;99.90;;;;;;5015900;28;20286;-68
2022/01/20 08:35:23;;;;;;;6.88;3.50;;;5.10;99.90;;;;;;5016281;28;20231;-68
2022/01/20 08:37:50;;;;;;;5.30;3.78;;;5.10;99.90;;;;;;5015414;28;20629;-68
2022/01/20 08:40:22;;;;;;;5.47;3.53;;;5.10;99.90;;;;;;5015280;28;20731;-68
2022/01/20 08:42:50;;;;;;;6.78;3.92;;;5.20;99.90;;;;;;5015336;28;20244;-68
2022/01/20 08:45:21;;;;;;;6.22;3.80;;;5.20;99.90;;;;;;5016385;28;20201;-68
2022/01/20 08:47:49;;;;;;;5.95;4.13;;;5.20;99.90;;;;;;5017088;28;20255;-68
2022/01/20 08:50:16;;;;;;;5.80;3.90;;;5.20;99.90;;;;;;5015407;28;20694;-68
2022/01/20 08:52:44;;;;;;;5.70;4.45;;;5.20;99.90;;;;;;5015588;28;20316;-68
2022/01/20 08:55:11;;;;;;;11.43;4.53;;;5.20;99.90;;;;;;5016733;28;20205;-68
2022/01/20 08:57:38;;;;;;;6.10;3.60;;;5.30;99.90;;;;;;5016628;28;20211;-68
2022/01/20 09:00:07;;;;;;;5.88;3.85;;;5.40;99.90;;;;;;5015283;28;20209;-68
2022/01/20 09:02:36;;;;;;;7.95;4.00;;;5.40;99.90;;;;;;5015423;28;20311;-68
2022/01/20 09:05:03;;;;;;;9.23;4.07;;;5.40;99.90;;;;;;5015295;28;20617;-68
2022/01/20 09:07:30;;;;;;;6.53;4.00;;;5.40;99.90;;;;;;5015044;28;20671;-68
2022/01/20 09:10:00;;;;;;;8.25;4.15;;;5.40;99.90;;;;;;5014907;28;20690;-68
2022/01/20 09:15:28;;;;;;;6.68;3.83;;;5.50;99.90;;;;;;5015910;28;20188;-68
2022/01/20 09:17:56;;;;;;;5.03;3.60;;;5.50;99.90;;;;;;5015261;28;20224;-68
2022/01/20 09:20:23;;;;;;;5.97;4.05;;;5.60;99.90;;;;;;5014822;28;20287;-68
2022/01/20 09:22:51;;;;;;;5.93;3.38;;;5.60;99.90;;;;;;5014677;28;20599;-68
2022/01/20 09:25:21;;;;;;;7.50;3.95;;;5.80;99.90;;;;;;5015034;28;20244;-68
2022/01/20 09:27:48;;;;;;;8.10;4.38;;;5.80;99.90;;;;;;5015338;28;20204;-68
2022/01/20 09:30:18;;;;;;;4.90;3.38;;;5.80;99.90;;;;;;5014347;28;20296;-68
2022/01/20 09:32:57;;;;;;;8.55;5.65;;;5.80;99.90;;;;;;5015200;28;20239;-68
2022/01/20 09:35:24;;;;;;;9.35;5.50;;;5.80;99.90;;;;;;5015110;28;20208;-68
2022/01/20 09:37:51;;;;;;;6.53;4.97;;;6.00;99.90;;;;;;5014790;28;20208;-68
2022/01/20 09:40:19;;;;;;;7.75;4.00;;;6.00;99.90;;;;;;5014469;28;20205;-68
2022/01/20 09:42:46;;;;;;;6.20;3.88;;;6.00;99.90;;;;;;5014124;28;20240;-68
2022/01/20 09:45:15;;;;;;;7.30;3.95;;;6.00;99.90;;;;;;5014469;28;20718;-68
2022/01/20 09:47:44;;;;;;;6.47;3.40;;;6.10;99.90;;;;;;5014609;28;20205;-68
2022/01/20 09:50:12;;;;;;;6.82;3.70;;;6.10;99.90;;;;;;5014344;28;20208;-68
2022/01/20 09:52:39;;;;;;;6.05;3.95;;;6.10;99.90;;;;;;5014579;28;20224;-68
2022/01/20 09:55:06;;;;;;;6.28;2.50;;;6.00;99.90;;;;;;5014382;28;20236;-68
2022/01/20 09:57:35;;;;;;;10.15;5.57;;;6.00;99.90;;;;;;5014333;28;20262;-68
2022/01/20 10:00:03;;;;;;;6.65;3.55;;;6.00;99.90;;;;;;5014036;28;20204;-68
2022/01/20 10:02:30;;;;;;;6.85;4.32;;;5.90;99.90;;;;;;5014038;28;20229;-68
2022/01/20 10:04:57;;;;;;;6.50;3.63;;;5.90;99.90;;;;;;5014745;28;20258;-68
2022/01/20 10:07:32;;;;;;;9.35;4.10;;;5.90;99.90;;;;;;5014537;28;20551;-68
2022/01/20 10:09:59;;;;;;;7.35;3.95;;;6.00;99.90;;;;;;5013987;28;20212;-68
2022/01/20 10:12:29;;;;;;;5.55;3.28;;;6.10;99.90;;;;;;5014379;28;20248;-68
2022/01/20 10:14:58;;;;;;;10.98;4.00;;;6.00;99.90;;;;;;5014067;28;20295;-68
2022/01/20 10:17:27;;;;;;;9.80;4.38;;;6.00;99.90;;;;;;5014509;28;20228;-68
2022/01/20 10:19:55;;;;;;;10.40;5.57;;;6.10;99.90;;;;;;5014238;28;20232;-68
2022/01/20 10:22:23;;;;;;;5.13;3.03;;;6.00;99.90;;;;;;5013973;28;20201;-68
2022/01/20 10:25:02;;;;;;;7.05;4.63;;;6.00;99.90;;;;;;5013815;28;20745;-68
2022/01/20 10:27:30;;;;;;;9.95;4.10;;;6.00;99.90;;;;;;5014155;28;20196;-68
2022/01/20 10:30:01;;;;;;;9.98;3.80;;;5.90;99.90;;;;;;5014208;28;20213;-68
2022/01/20 10:32:39;;;;;;;4.43;3.60;;;5.90;99.90;;;;;;5013897;28;20231;-68
2022/01/20 10:35:07;;;;;;;5.78;3.78;;;5.90;99.90;;;;;;5013942;28;20659;-68
2022/01/20 10:37:35;;;;;;;7.85;4.43;;;5.90;99.90;;;;;;5014215;28;20228;-68
2022/01/20 10:40:08;;;;;;;8.38;3.92;;;6.00;99.90;;;;;;5014215;28;20204;-68
2022/01/20 10:42:39;;;;;;;5.40;4.68;;;6.00;99.90;;;;;;5013514;28;20794;-68
2022/01/20 10:45:09;;;;;;;6.22;4.10;;;6.00;99.90;;;;;;5013901;28;20295;-68
2022/01/20 10:47:39;;;;;;;4.00;3.60;;;5.90;99.90;;;;;;5014027;28;20608;-68
2022/01/20 10:50:11;;;;;;;7.47;3.65;;;5.90;99.90;;;;;;5013765;28;20215;-68
2022/01/20 10:52:40;;;;;;;6.60;3.85;;;6.00;99.90;;;;;;5014444;28;20245;-68
2022/01/20 10:55:23;;;;;;;3.28;2.65;;;6.00;99.90;;;;;;5015027;28;20216;-68
2022/01/20 10:57:52;;;;;;;5.40;4.15;;;6.00;99.90;;;;;;5013764;28;20228;-68
2022/01/20 11:00:22;;;;;;;9.45;4.05;;;6.00;99.90;;;;;;5013633;28;20213;-68
2022/01/20 11:02:51;;;;;;;7.32;4.22;;;6.10;99.90;;;;;;5013890;28;20682;-68
2022/01/20 11:05:18;;;;;;;6.05;3.75;;;6.10;99.90;;;;;;5014151;28;20215;-68
2022/01/20 11:07:45;;;;;;;10.32;4.07;;;6.20;99.90;;;;;;5013620;28;20207;-68
2022/01/20 11:10:12;;;;;;;7.80;4.03;;;6.30;99.90;;;;;;5013296;28;20205;-68
2022/01/20 11:12:40;;;;;;;6.22;4.18;;;6.30;99.90;;;;;;5013565;28;20232;-68
2022/01/20 11:15:08;;;;;;;5.47;4.00;;;6.20;99.90;;;;;;5017533;28;20661;-68
2022/01/20 11:17:40;;;;;;;6.72;3.70;;;6.20;99.90;;;;;;5017449;28;20224;-68
2022/01/20 11:20:09;;;;;;;6.15;4.18;;;6.20;99.90;;;;;;5017181;28;20733;-68
2022/01/20 11:22:36;;;;;;;6.72;4.60;;;6.10;99.90;;;;;;5017365;28;20315;-68
2022/01/20 11:25:07;;;;;;;6.00;4.53;;;6.10;99.90;;;;;;5017509;28;20282;-68
2022/01/20 11:27:39;;;;;;;6.35;4.97;;;6.10;99.90;;;;;;5018652;28;20205;-68
2022/01/20 11:30:21;;;;;;;6.22;4.50;;;6.20;99.90;;;;;;5017775;28;20551;-68
2022/01/20 11:33:00;;;;;;;8.07;4.85;;;6.10;99.90;;;;;;5017279;28;20354;-68
2022/01/20 11:35:42;;;;;;;6.40;3.88;;;6.20;99.90;;;;;;5017665;28;20204;-68
2022/01/20 11:38:11;;;;;;;7.50;4.38;;;6.20;99.90;;;;;;5018667;28;20197;-67
2022/01/20 11:40:52;;;;;;;10.88;5.32;;;6.10;99.90;;;;;;5016729;28;20264;-68
2022/01/20 11:43:31;;;;;;;7.50;4.95;;;6.10;99.90;;;;;;5016413;28;20228;-68
2022/01/20 11:46:10;;;;;;;8.30;4.40;;;6.10;99.90;;;;;;5016871;28;20291;-68
2022/01/20 11:48:55;;;;;;;5.57;3.17;;;6.10;99.90;;;;;;5016896;28;20263;-68
2022/01/20 11:51:23;;;;;;;12.90;4.80;;;6.00;99.90;;;;;;5016296;28;20216;-68
2022/01/20 11:53:58;;;;;;;4.85;3.85;;;6.00;99.90;;;;;;5016297;28;20315;-67
2022/01/20 11:56:31;;;;;;;5.82;4.15;;;6.10;99.90;;;;;;5016534;28;20562;-68
2022/01/20 11:58:58;;;;;;;6.13;3.70;;;6.20;99.90;;;;;;5016400;28;20212;-68
2022/01/20 12:01:27;;;;;;;6.03;3.55;;;6.30;99.90;;;;;;5015992;28;20200;-68
2022/01/20 12:03:56;;;;;;;6.50;3.50;;;6.40;99.90;;;;;;5016173;28;20256;-68
2022/01/20 12:06:25;;;;;;;5.85;4.00;;;6.40;99.90;;;;;;5016243;28;20205;-68
2022/01/20 12:08:56;;;;;;;4.85;3.65;;;6.50;99.90;;;;;;5016353;28;20258;-68
2022/01/20 12:11:35;;;;;;;5.28;3.20;;;6.70;99.90;;;;;;5016230;28;20251;-68
2022/01/20 12:14:02;;;;;;;3.30;2.75;;;6.70;99.90;;;;;;5016758;28;20228;-68
2022/01/20 12:16:29;;;;;;;7.65;3.20;;;6.60;99.90;;;;;;5016248;28;20224;-68
2022/01/20 12:18:59;;;;;;;4.30;3.05;;;6.60;99.90;;;;;;5016070;28;20223;-68
2022/01/20 12:21:27;;;;;;;6.28;3.30;;;6.60;99.90;;;;;;5015857;28;20189;-68
2022/01/20 12:23:55;;;;;;;4.93;3.40;;;6.60;99.90;;;;;;5016131;28;20235;-68
2022/01/20 12:26:22;;;;;;;5.80;3.45;;;6.50;99.90;;;;;;5016194;28;20207;-68
2022/01/20 12:29:00;;;;;;;2.78;1.80;;;6.50;99.90;;;;;;5016342;28;20297;-68
2022/01/20 12:31:27;;;;;;;3.20;1.70;;;5.40;99.90;;;;;;5015778;28;20205;-68
2022/01/20 12:33:54;;;;;;;4.18;1.58;;;4.50;99.90;;;;;;5015647;28;20227;-68
2022/01/20 12:36:22;;;;;;;3.22;1.88;;;4.40;99.90;;;;;;5016004;28;20221;-68
2022/01/20 12:38:51;;;;;;;2.95;2.20;;;3.90;99.90;;;;;;5016114;28;20204;-68
2022/01/20 12:41:20;;;;;;;1.95;1.58;;;3.60;99.90;;;;;;5015288;28;20204;-68
2022/01/20 12:43:49;;;;;;;6.18;2.15;;;3.60;99.90;;;;;;5015387;28;20224;-68
2022/01/20 12:46:17;;;;;;;3.45;2.40;;;3.60;99.90;;;;;;5015575;28;20547;-67
2022/01/20 12:48:56;;;;;;;4.05;2.58;;;3.60;99.90;;;;;;5015613;28;20215;-68
2022/01/20 12:51:32;;;;;;;4.38;2.70;;;3.70;99.90;;;;;;5014998;28;20213;-68
2022/01/20 12:54:05;;;;;;;3.42;2.67;;;3.70;99.90;;;;;;5015218;28;20224;-68
2022/01/20 12:56:35;;;;;;;4.25;2.55;;;3.70;99.90;;;;;;5015192;28;20315;-68
2022/01/20 12:59:02;;;;;;;4.45;3.28;;;3.90;99.90;;;;;;5015397;28;20211;-68
2022/01/20 13:01:39;;;;;;;3.05;2.20;;;4.00;99.90;;;;;;5015067;28;20300;-68
2022/01/20 13:04:08;;;;;;;2.85;1.98;;;4.00;99.90;;;;;;5015843;28;20570;-68
2022/01/20 13:06:40;;;;;;;5.00;2.78;;;4.10;99.90;;;;;;5015427;28;20679;-68
2022/01/20 13:09:09;;;;;;;3.45;2.58;;;4.10;99.90;;;;;;5015199;28;20213;-68
2022/01/20 13:11:41;;;;;;;2.60;1.75;;;4.10;99.90;;;;;;5015069;28;20213;-68
2022/01/20 13:14:09;;;;;;;8.20;2.90;;;4.10;99.90;;;;;;5015097;28;20286;-68
2022/01/20 13:16:37;;;;;;;7.00;3.05;;;4.00;99.90;;;;;;5015105;28;20701;-68
2022/01/20 13:19:05;;;;;;;4.20;2.40;;;4.00;99.90;;;;;;5015386;28;20296;-68
2022/01/20 13:21:44;;;;;;;7.10;3.45;;;3.90;99.90;;;;;;5014659;28;20201;-68
2022/01/20 13:24:12;;;;;;;5.03;2.65;;;3.80;99.90;;;;;;5014832;28;20260;-68
2022/01/20 13:26:52;;;;;;;4.55;3.00;;;3.70;99.90;;;;;;5015208;28;20208;-68
2022/01/20 13:29:21;;;;;;;8.07;2.83;;;3.80;99.90;;;;;;5015083;28;20208;-68
2022/01/20 13:31:50;;;;;;;3.30;3.00;;;3.90;99.90;;;;;;5014609;28;20206;-68
2022/01/20 13:34:19;;;;;;;6.40;3.00;;;4.00;99.90;;;;;;5014784;28;20228;-68
2022/01/20 13:36:50;;;;;;;4.80;2.88;;;4.00;99.90;;;;;;5014525;28;20566;-68
2022/01/20 13:39:28;;;;;;;7.72;2.90;;;4.10;99.90;;;;;;5014903;28;20575;-68
2022/01/20 13:42:10;;;;;;;4.15;2.40;;;4.00;99.90;;;;;;5014077;28;20212;-68
2022/01/20 13:47:21;;;;;;;5.53;2.97;;;3.90;99.90;;;;;;5014750;28;20587;-68
2022/01/20 13:49:50;;;;;;;7.70;3.08;;;3.90;99.90;;;;;;5014682;28;20205;-68
2022/01/20 13:52:20;;;;;;;3.85;2.45;;;4.00;99.90;;;;;;5014181;28;20307;-68
2022/01/20 13:54:49;;;;;;;3.35;2.30;;;4.00;99.90;;;;;;5014467;28;20228;-67
2022/01/20 13:57:16;;;;;;;6.72;3.13;;;4.00;99.90;;;;;;5014521;28;20231;-68